createdAt,value
2022-11-21T00:00:45.701Z,7.70
2022-11-21T00:01:45.792Z,7.69
2022-11-21T00:02:45.845Z,7.74
2022-11-21T00:03:45.683Z,7.73
2022-11-21T00:04:45.682Z,7.79
2022-11-21T00:05:45.656Z,7.76
2022-11-21T00:06:45.723Z,7.77
2022-11-21T00:07:45.689Z,7.77
2022-11-21T00:08:45.798Z,7.82
2022-11-21T00:09:45.729Z,7.92
2022-11-21T00:10:45.688Z,7.91
2022-11-21T00:11:45.613Z,7.92
2022-11-21T00:12:45.617Z,7.74
2022-11-21T00:13:45.619Z,7.77
2022-11-21T00:14:45.652Z,7.76
2022-11-21T00:15:45.541Z,7.88
2022-11-21T00:16:45.548Z,7.94
2022-11-21T00:17:45.518Z,7.82
2022-11-21T00:18:45.548Z,7.81
2022-11-21T00:19:45.514Z,7.86
2022-11-21T00:20:45.533Z,7.92
2022-11-21T00:21:45.479Z,7.95
2022-11-21T00:22:45.459Z,8.04
2022-11-21T00:23:45.480Z,8.03
2022-11-21T00:24:45.476Z,8.03
2022-11-21T00:25:45.429Z,8.04
2022-11-21T00:26:45.477Z,8.02
2022-11-21T00:27:45.444Z,8.00
2022-11-21T00:28:45.468Z,8.12
2022-11-21T00:29:45.437Z,8.13
2022-11-21T00:30:45.377Z,8.00
2022-11-21T00:31:45.429Z,8.02
2022-11-21T00:32:45.414Z,7.96
2022-11-21T00:33:45.471Z,7.99
2022-11-21T00:34:45.415Z,7.96
2022-11-21T00:35:45.387Z,8.14
2022-11-21T00:36:45.352Z,7.96
2022-11-21T00:37:45.315Z,8.00
2022-11-21T00:38:45.316Z,7.99
2022-11-21T00:39:45.354Z,8.02
2022-11-21T00:40:45.278Z,8.06
2022-11-21T00:41:45.287Z,8.12
2022-11-21T00:42:45.313Z,8.14
2022-11-21T00:43:45.302Z,8.13
2022-11-21T00:44:45.300Z,8.24
2022-11-21T00:45:45.241Z,8.22
2022-11-21T00:46:45.269Z,8.27
2022-11-21T00:47:45.190Z,8.22
2022-11-21T00:48:45.320Z,8.24
2022-11-21T00:49:45.198Z,8.28
2022-11-21T00:50:45.168Z,8.29
2022-11-21T00:51:45.201Z,8.31
2022-11-21T00:52:45.330Z,8.25
2022-11-21T00:53:45.166Z,8.28
2022-11-21T00:54:45.129Z,8.20
2022-11-21T00:55:45.194Z,8.31
2022-11-21T00:56:45.105Z,8.28
2022-11-21T00:57:45.145Z,8.24
2022-11-21T00:58:45.147Z,8.07
2022-11-21T00:59:45.084Z,8.12
2022-11-21T01:00:45.210Z,8.12
2022-11-21T01:01:45.049Z,8.03
2022-11-21T01:02:45.133Z,8.13
2022-11-21T01:03:45.041Z,7.96
2022-11-21T01:04:45.092Z,8.09
2022-11-21T01:05:45.004Z,7.99
2022-11-21T01:06:45.005Z,7.88
2022-11-21T01:07:45.089Z,7.94
2022-11-21T01:08:44.972Z,7.89
2022-11-21T01:09:45.059Z,7.95
2022-11-21T01:10:44.989Z,7.88
2022-11-21T01:11:44.963Z,7.86
2022-11-21T01:12:45.000Z,7.81
2022-11-21T01:13:45.018Z,7.95
2022-11-21T01:14:44.929Z,7.96
2022-11-21T01:15:44.921Z,7.95
2022-11-21T01:16:44.896Z,7.89
2022-11-21T01:17:44.862Z,7.99
2022-11-21T01:18:44.908Z,7.99
2022-11-21T01:19:44.913Z,8.00
2022-11-21T01:20:44.892Z,7.96
2022-11-21T01:21:44.886Z,8.07
2022-11-21T01:22:44.908Z,8.02
2022-11-21T01:23:44.803Z,8.00
2022-11-21T01:24:44.905Z,7.96
2022-11-21T01:25:44.779Z,7.91
2022-11-21T01:26:44.795Z,7.86
2022-11-21T01:27:44.794Z,7.86
2022-11-21T01:28:44.763Z,7.84
2022-11-21T01:29:44.742Z,7.77
2022-11-21T01:30:44.803Z,7.79
2022-11-21T01:31:44.789Z,7.71
2022-11-21T01:32:44.765Z,7.67
2022-11-21T01:33:44.755Z,7.70
2022-11-21T01:34:44.782Z,7.74
2022-11-21T01:35:44.981Z,7.73
2022-11-21T01:36:44.684Z,7.76
2022-11-21T01:37:44.712Z,7.76
2022-11-21T01:38:44.669Z,7.79
2022-11-21T01:39:44.667Z,7.79
2022-11-21T01:40:44.621Z,7.76
2022-11-21T01:41:44.658Z,7.81
2022-11-21T01:42:44.671Z,7.76
2022-11-21T01:43:44.675Z,7.77
2022-11-21T01:44:44.607Z,7.84
2022-11-21T01:45:44.582Z,7.77
2022-11-21T01:46:44.694Z,7.74
2022-11-21T01:47:44.593Z,7.74
2022-11-21T01:48:44.708Z,7.76
2022-11-21T01:49:44.630Z,7.82
2022-11-21T01:50:44.513Z,7.77
2022-11-21T01:51:44.524Z,7.70
2022-11-21T01:52:44.629Z,7.73
2022-11-21T01:53:44.510Z,7.74
2022-11-21T01:54:44.503Z,7.67
2022-11-21T01:55:44.488Z,7.70
2022-11-21T01:56:44.480Z,7.62
2022-11-21T01:57:44.513Z,7.62
2022-11-21T01:58:44.429Z,7.63
2022-11-21T01:59:44.446Z,7.73
2022-11-21T02:00:44.480Z,7.66
2022-11-21T02:01:44.391Z,7.63
2022-11-21T02:02:44.470Z,7.63
2022-11-21T02:03:44.373Z,7.62
2022-11-21T02:04:44.472Z,7.54
2022-11-21T02:05:44.395Z,7.67
2022-11-21T02:06:44.346Z,7.66
2022-11-21T02:07:44.512Z,7.71
2022-11-21T02:08:44.366Z,7.66
2022-11-21T02:09:44.394Z,7.69
2022-11-21T02:10:44.321Z,7.76
2022-11-21T02:11:44.295Z,7.73
2022-11-21T02:12:44.306Z,7.63
2022-11-21T02:13:44.319Z,7.67
2022-11-21T02:14:44.264Z,7.67
2022-11-21T02:15:44.246Z,7.62
2022-11-21T02:16:44.245Z,7.63
2022-11-21T02:17:44.237Z,7.63
2022-11-21T02:18:44.214Z,7.57
2022-11-21T02:19:44.220Z,7.55
2022-11-21T02:20:44.281Z,7.54
2022-11-21T02:21:44.207Z,7.60
2022-11-21T02:22:44.168Z,7.54
2022-11-21T02:23:44.257Z,7.55
2022-11-21T02:24:44.164Z,7.47
2022-11-21T02:25:44.130Z,7.48
2022-11-21T02:26:44.173Z,7.55
2022-11-21T02:27:44.129Z,7.47
2022-11-21T02:28:44.105Z,7.52
2022-11-21T02:29:44.117Z,7.51
2022-11-21T02:30:44.104Z,7.48
2022-11-21T02:31:44.079Z,7.57
2022-11-21T02:32:44.154Z,7.63
2022-11-21T02:33:44.061Z,7.58
2022-11-21T02:34:44.078Z,7.58
2022-11-21T02:35:44.061Z,7.58
2022-11-21T02:36:44.018Z,7.62
2022-11-21T02:37:44.088Z,7.63
2022-11-21T02:38:44.061Z,7.66
2022-11-21T02:39:44.035Z,7.62
2022-11-21T02:40:44.011Z,7.50
2022-11-21T02:41:44.024Z,7.62
2022-11-21T02:42:46.790Z,7.60
2022-11-21T02:43:44.938Z,7.57
2022-11-21T02:44:43.984Z,7.57
2022-11-21T02:45:43.967Z,7.55
2022-11-21T02:46:43.925Z,7.48
2022-11-21T02:47:44.015Z,7.57
2022-11-21T02:48:43.903Z,7.48
2022-11-21T02:49:43.914Z,7.54
2022-11-21T02:50:43.872Z,7.51
2022-11-21T02:51:43.870Z,7.52
2022-11-21T02:52:43.845Z,7.50
2022-11-21T02:53:43.906Z,7.41
2022-11-21T02:54:43.838Z,7.45
2022-11-21T02:55:43.820Z,7.47
2022-11-21T02:56:43.811Z,7.37
2022-11-21T02:57:43.863Z,7.36
2022-11-21T02:58:43.803Z,7.51
2022-11-21T02:59:43.796Z,7.36
2022-11-21T03:00:43.856Z,7.37
2022-11-21T03:01:43.823Z,7.37
2022-11-21T03:02:43.745Z,7.44
2022-11-21T03:03:43.738Z,7.42
2022-11-21T03:04:43.803Z,7.50
2022-11-21T03:05:43.705Z,7.51
2022-11-21T03:06:43.730Z,7.44
2022-11-21T03:07:43.781Z,7.47
2022-11-21T03:08:43.668Z,7.33
2022-11-21T03:09:43.704Z,7.47
2022-11-21T03:10:43.662Z,7.42
2022-11-21T03:11:43.657Z,7.50
2022-11-21T03:12:43.647Z,7.45
2022-11-21T03:13:43.616Z,7.54
2022-11-21T03:14:43.625Z,7.48
2022-11-21T03:15:43.604Z,7.50
2022-11-21T03:16:43.653Z,7.41
2022-11-21T03:17:43.639Z,7.44
2022-11-21T03:18:43.559Z,7.36
2022-11-21T03:19:43.580Z,7.50
2022-11-21T03:20:43.595Z,7.34
2022-11-21T03:21:43.547Z,7.34
2022-11-21T03:22:43.532Z,7.41
2022-11-21T03:23:43.510Z,7.47
2022-11-21T03:24:43.579Z,7.41
2022-11-21T03:25:43.560Z,7.47
2022-11-21T03:26:43.469Z,7.51
2022-11-21T03:27:43.466Z,7.36
2022-11-21T03:28:43.457Z,7.48
2022-11-21T03:29:43.521Z,7.33
2022-11-21T03:30:43.524Z,7.42
2022-11-21T03:31:43.435Z,7.36
2022-11-21T03:32:43.435Z,7.41
2022-11-21T03:33:43.474Z,7.41
2022-11-21T03:34:43.428Z,7.33
2022-11-21T03:35:43.382Z,7.44
2022-11-21T03:36:43.387Z,7.39
2022-11-21T03:37:43.401Z,7.36
2022-11-21T03:38:43.381Z,7.39
2022-11-21T03:39:43.387Z,7.39
2022-11-21T03:40:43.366Z,7.41
2022-11-21T03:41:43.311Z,7.33
2022-11-21T03:42:43.358Z,7.47
2022-11-21T03:43:43.313Z,7.42
2022-11-21T03:44:43.305Z,7.39
2022-11-21T03:45:43.283Z,7.45
2022-11-21T03:46:43.313Z,7.39
2022-11-21T03:47:43.252Z,7.34
2022-11-21T03:48:43.247Z,7.33
2022-11-21T03:49:43.308Z,7.39
2022-11-21T03:50:43.243Z,7.33
2022-11-21T03:51:43.216Z,7.32
2022-11-21T03:52:43.218Z,7.32
2022-11-21T03:53:43.298Z,7.24
2022-11-21T03:54:43.325Z,7.33
2022-11-21T03:55:43.177Z,7.26
2022-11-21T03:56:43.187Z,7.23
2022-11-21T03:57:43.156Z,7.24
2022-11-21T03:58:43.202Z,7.24
2022-11-21T03:59:43.144Z,7.21
2022-11-21T04:00:43.169Z,7.24
2022-11-21T04:01:43.183Z,7.24
2022-11-21T04:02:43.083Z,7.24
2022-11-21T04:03:43.087Z,7.27
2022-11-21T04:04:43.170Z,7.26
2022-11-21T04:05:43.063Z,7.19
2022-11-21T04:06:43.073Z,7.27
2022-11-21T04:07:43.227Z,7.26
2022-11-21T04:08:43.041Z,7.29
2022-11-21T04:09:43.050Z,7.23
2022-11-21T04:10:43.088Z,7.21
2022-11-21T04:11:42.992Z,7.21
2022-11-21T04:12:43.004Z,7.12
2022-11-21T04:13:43.010Z,7.12
2022-11-21T04:14:42.997Z,7.15
2022-11-21T04:15:42.976Z,7.14
2022-11-21T04:16:42.931Z,7.14
2022-11-21T04:17:43.032Z,7.08
2022-11-21T04:18:42.935Z,7.09
2022-11-21T04:19:42.924Z,7.00
2022-11-21T04:20:42.937Z,7.05
2022-11-21T04:21:42.908Z,7.11
2022-11-21T04:22:42.876Z,7.01
2022-11-21T04:23:42.864Z,7.01
2022-11-21T04:24:42.946Z,7.04
2022-11-21T04:25:42.865Z,6.96
2022-11-21T04:26:42.863Z,6.97
2022-11-21T04:27:42.822Z,6.96
2022-11-21T04:28:42.900Z,6.96
2022-11-21T04:29:42.796Z,6.97
2022-11-21T04:30:42.801Z,6.97
2022-11-21T04:31:43.376Z,6.90
2022-11-21T04:32:42.761Z,6.94
2022-11-21T04:33:42.779Z,6.99
2022-11-21T04:34:42.804Z,6.99
2022-11-21T04:35:42.745Z,7.08
2022-11-21T04:36:42.807Z,7.12
2022-11-21T04:37:42.730Z,7.08
2022-11-21T04:38:42.720Z,7.16
2022-11-21T04:39:42.713Z,7.15
2022-11-21T04:40:42.708Z,7.11
2022-11-21T04:41:42.674Z,7.18
2022-11-21T04:42:42.713Z,7.26
2022-11-21T04:43:42.673Z,7.29
2022-11-21T04:44:42.673Z,7.27
2022-11-21T04:45:42.636Z,7.24
2022-11-21T04:46:42.621Z,7.29
2022-11-21T04:47:42.651Z,7.29
2022-11-21T04:48:42.604Z,7.29
2022-11-21T04:49:42.618Z,7.26
2022-11-21T04:50:42.632Z,7.23
2022-11-21T04:51:42.571Z,7.26
2022-11-21T04:52:42.545Z,7.27
2022-11-21T04:53:43.292Z,7.26
2022-11-21T04:54:42.600Z,7.19
2022-11-21T04:55:42.511Z,7.23
2022-11-21T04:56:42.528Z,7.29
2022-11-21T04:57:42.500Z,7.27
2022-11-21T04:58:42.503Z,7.27
2022-11-21T04:59:42.493Z,7.24
2022-11-21T05:00:42.535Z,7.27
2022-11-21T05:01:42.522Z,7.23
2022-11-21T05:02:42.514Z,7.18
2022-11-21T05:03:42.472Z,7.14
2022-11-21T05:04:42.447Z,7.11
2022-11-21T05:05:42.407Z,7.08
2022-11-21T05:06:42.573Z,7.11
2022-11-21T05:07:42.449Z,7.16
2022-11-21T05:08:42.390Z,7.24
2022-11-21T05:09:42.440Z,7.29
2022-11-21T05:10:42.359Z,7.29
2022-11-21T05:11:42.344Z,7.27
2022-11-21T05:12:42.361Z,7.23
2022-11-21T05:13:42.331Z,7.24
2022-11-21T05:14:42.339Z,7.33
2022-11-21T05:15:42.330Z,7.24
2022-11-21T05:16:42.305Z,7.30
2022-11-21T05:17:42.274Z,7.27
2022-11-21T05:18:42.300Z,7.33
2022-11-21T05:19:42.314Z,7.27
2022-11-21T05:20:42.272Z,7.27
2022-11-21T05:21:42.258Z,7.21
2022-11-21T05:22:42.224Z,7.16
2022-11-21T05:23:42.259Z,7.26
2022-11-21T05:24:42.242Z,7.24
2022-11-21T05:25:42.192Z,7.23
2022-11-21T05:26:42.181Z,7.26
2022-11-21T05:27:42.214Z,7.21
2022-11-21T05:28:42.174Z,7.16
2022-11-21T05:29:42.164Z,7.16
2022-11-21T05:30:42.186Z,7.09
2022-11-21T05:31:42.119Z,7.12
2022-11-21T05:32:42.114Z,7.15
2022-11-21T05:33:42.103Z,7.07
2022-11-21T05:34:42.182Z,7.14
2022-11-21T05:35:43.563Z,7.11
2022-11-21T05:36:42.112Z,7.11
2022-11-21T05:37:42.093Z,7.08
2022-11-21T05:38:42.179Z,7.12
2022-11-21T05:39:42.056Z,7.11
2022-11-21T05:40:42.051Z,7.15
2022-11-21T05:41:42.046Z,7.30
2022-11-21T05:42:42.030Z,7.23
2022-11-21T05:43:42.011Z,7.21
2022-11-21T05:44:42.022Z,7.23
2022-11-21T05:45:41.994Z,7.29
2022-11-21T05:46:41.982Z,7.26
2022-11-21T05:47:41.986Z,7.29
2022-11-21T05:48:42.004Z,7.37
2022-11-21T05:49:41.994Z,7.29
2022-11-21T05:50:41.918Z,7.33
2022-11-21T05:51:41.907Z,7.34
2022-11-21T05:52:41.899Z,7.44
2022-11-21T05:53:41.991Z,7.42
2022-11-21T05:54:45.968Z,7.37
2022-11-21T05:55:41.862Z,7.39
2022-11-21T05:56:41.928Z,7.34
2022-11-21T05:57:41.930Z,7.36
2022-11-21T05:58:41.889Z,7.45
2022-11-21T05:59:41.881Z,7.57
2022-11-21T06:00:41.832Z,7.47
2022-11-21T06:01:41.808Z,7.57
2022-11-21T06:02:41.857Z,7.60
2022-11-21T06:03:41.837Z,7.57
2022-11-21T06:04:41.779Z,7.54
2022-11-21T06:05:41.754Z,7.58
2022-11-21T06:06:41.823Z,7.45
2022-11-21T06:07:41.781Z,7.52
2022-11-21T06:08:41.725Z,7.48
2022-11-21T06:09:41.789Z,7.42
2022-11-21T06:10:41.750Z,7.62
2022-11-21T06:11:41.691Z,7.60
2022-11-21T06:12:41.725Z,7.55
2022-11-21T06:13:41.680Z,7.63
2022-11-21T06:14:41.711Z,7.52
2022-11-21T06:15:41.673Z,7.47
2022-11-21T06:16:41.801Z,7.55
2022-11-21T06:17:41.736Z,7.50
2022-11-21T06:18:41.619Z,7.50
2022-11-21T06:19:41.651Z,7.39
2022-11-21T06:20:41.597Z,7.55
2022-11-21T06:21:41.590Z,7.39
2022-11-21T06:22:41.659Z,7.41
2022-11-21T06:23:41.601Z,7.30
2022-11-21T06:24:41.570Z,7.36
2022-11-21T06:25:41.576Z,7.41
2022-11-21T06:26:41.564Z,7.39
2022-11-21T06:27:41.515Z,7.37
2022-11-21T06:28:41.554Z,7.33
2022-11-21T06:29:41.543Z,7.39
2022-11-21T06:30:41.490Z,7.41
2022-11-21T06:31:41.526Z,7.36
2022-11-21T06:32:41.526Z,7.41
2022-11-21T06:33:41.493Z,7.36
2022-11-21T06:34:41.482Z,7.50
2022-11-21T06:35:41.503Z,7.51
2022-11-21T06:36:41.514Z,7.39
2022-11-21T06:37:41.483Z,7.47
2022-11-21T06:38:41.437Z,7.44
2022-11-21T06:39:41.434Z,7.47
2022-11-21T06:40:41.381Z,7.39
2022-11-21T06:41:41.366Z,7.48
2022-11-21T06:42:41.404Z,7.33
2022-11-21T06:43:41.395Z,7.54
2022-11-21T06:44:41.374Z,7.37
2022-11-21T06:45:41.373Z,7.45
2022-11-21T06:46:41.394Z,7.45
2022-11-21T06:47:41.385Z,7.51
2022-11-21T06:48:41.377Z,7.50
2022-11-21T06:49:41.393Z,7.37
2022-11-21T06:50:43.135Z,7.42
2022-11-21T06:51:41.289Z,7.39
2022-11-21T06:52:41.335Z,7.44
2022-11-21T06:53:41.271Z,7.42
2022-11-21T06:54:41.455Z,7.45
2022-11-21T06:55:41.219Z,7.33
2022-11-21T06:56:41.212Z,7.45
2022-11-21T06:57:41.200Z,7.45
2022-11-21T06:58:41.246Z,7.54
2022-11-21T06:59:41.197Z,7.57
2022-11-21T07:00:41.209Z,7.54
2022-11-21T07:01:41.226Z,7.57
2022-11-21T07:02:41.214Z,7.44
2022-11-21T07:03:41.159Z,7.50
2022-11-21T07:04:41.198Z,7.54
2022-11-21T07:05:41.173Z,7.66
2022-11-21T07:06:41.131Z,7.60
2022-11-21T07:07:41.136Z,7.63
2022-11-21T07:08:41.163Z,7.62
2022-11-21T07:09:41.121Z,7.55
2022-11-21T07:10:57.231Z,7.57
2022-11-21T07:11:42.085Z,7.63
2022-11-21T07:12:41.079Z,7.63
2022-11-21T07:13:41.503Z,7.62
2022-11-21T07:14:41.079Z,7.44
2022-11-21T07:15:41.085Z,7.55
2022-11-21T07:16:41.497Z,7.57
2022-11-21T07:17:41.039Z,7.55
2022-11-21T07:18:41.005Z,7.60
2022-11-21T07:19:41.488Z,7.66
2022-11-21T07:20:41.091Z,7.60
2022-11-21T07:21:41.041Z,7.62
2022-11-21T07:22:41.042Z,7.74
2022-11-21T07:23:41.003Z,7.71
2022-11-21T07:24:41.061Z,7.76
2022-11-21T07:25:41.003Z,7.74
2022-11-21T07:26:41.169Z,7.74
2022-11-21T07:27:41.464Z,7.81
2022-11-21T07:28:41.113Z,7.82
2022-11-21T07:29:40.906Z,7.85
2022-11-21T07:30:40.956Z,7.89
2022-11-21T07:31:41.173Z,7.77
2022-11-21T07:32:40.814Z,7.86
2022-11-21T07:33:41.030Z,7.91
2022-11-21T07:34:40.982Z,7.99
2022-11-21T07:35:40.918Z,7.89
2022-11-21T07:36:40.800Z,7.85
2022-11-21T07:37:40.781Z,7.91
2022-11-21T07:38:40.781Z,7.84
2022-11-21T07:39:40.793Z,7.81
2022-11-21T07:40:40.786Z,7.86
2022-11-21T07:41:40.789Z,7.85
2022-11-21T07:42:40.731Z,7.95
2022-11-21T07:43:40.695Z,7.99
2022-11-21T07:44:40.741Z,7.92
2022-11-21T07:45:40.760Z,7.96
2022-11-21T07:46:40.710Z,8.02
2022-11-21T07:47:40.650Z,8.04
2022-11-21T07:48:40.701Z,7.96
2022-11-21T07:49:40.661Z,8.07
2022-11-21T07:50:40.678Z,8.22
2022-11-21T07:51:40.637Z,8.36
2022-11-21T07:52:40.617Z,8.34
2022-11-21T07:53:40.591Z,8.45
2022-11-21T07:54:40.589Z,8.82
2022-11-21T07:55:41.190Z,9.37
2022-11-21T07:56:40.627Z,9.83
2022-11-21T07:57:40.552Z,9.89
2022-11-21T07:58:40.542Z,10.22
2022-11-21T07:59:40.541Z,10.65
2022-11-21T08:00:40.519Z,10.69
2022-11-21T08:01:45.164Z,10.44
2022-11-21T08:02:41.505Z,10.16
2022-11-21T08:03:40.490Z,9.73
2022-11-21T08:04:40.533Z,9.88
2022-11-21T08:05:40.467Z,10.14
2022-11-21T08:06:40.529Z,10.35
2022-11-21T08:07:40.543Z,10.69
2022-11-21T08:08:40.497Z,10.84
2022-11-21T08:09:40.459Z,10.87
2022-11-21T08:10:40.549Z,11.05
2022-11-21T08:11:40.434Z,11.01
2022-11-21T08:12:40.426Z,10.99
2022-11-21T08:13:40.437Z,10.13
2022-11-21T08:14:40.396Z,9.98
2022-11-21T08:15:40.381Z,9.63
2022-11-21T08:16:40.356Z,9.20
2022-11-21T08:17:40.395Z,8.94
2022-11-21T08:18:40.331Z,8.55
2022-11-21T08:19:40.412Z,8.49
2022-11-21T08:20:40.351Z,8.37
2022-11-21T08:21:40.301Z,8.42
2022-11-21T08:22:40.273Z,8.27
2022-11-21T08:23:40.293Z,8.28
2022-11-21T08:24:40.351Z,8.54
2022-11-21T08:25:40.322Z,9.12
2022-11-21T08:26:40.286Z,9.62
2022-11-21T08:27:40.230Z,10.06
2022-11-21T08:28:40.212Z,10.43
2022-11-21T08:29:40.267Z,10.49
2022-11-21T08:30:40.209Z,10.02
2022-11-21T08:31:40.252Z,10.02
2022-11-21T08:32:40.235Z,10.34
2022-11-21T08:33:40.312Z,10.68
2022-11-21T08:34:40.229Z,11.06
2022-11-21T08:35:40.191Z,11.26
2022-11-21T08:36:40.151Z,11.67
2022-11-21T08:37:40.109Z,11.60
2022-11-21T08:38:40.316Z,11.87
2022-11-21T08:39:40.131Z,12.01
2022-11-21T08:40:40.096Z,12.15
2022-11-21T08:41:40.076Z,12.16
2022-11-21T08:42:40.084Z,12.18
2022-11-21T08:43:40.060Z,11.84
2022-11-21T08:44:40.131Z,11.67
2022-11-21T08:45:40.139Z,11.60
2022-11-21T08:46:41.374Z,11.57
2022-11-21T08:47:43.226Z,11.70
2022-11-21T08:48:40.035Z,11.79
2022-11-21T08:49:40.415Z,11.88
2022-11-21T08:50:40.134Z,11.75
2022-11-21T08:51:40.439Z,12.01
2022-11-21T08:52:40.192Z,12.15
2022-11-21T08:53:40.253Z,12.29
2022-11-21T08:54:39.969Z,12.00
2022-11-21T08:55:39.933Z,11.98
2022-11-21T08:56:39.917Z,11.93
2022-11-21T08:57:39.927Z,11.85
2022-11-21T08:58:39.915Z,11.72
2022-11-21T08:59:39.870Z,11.90
2022-11-21T09:00:39.877Z,11.97
2022-11-21T09:01:39.910Z,12.01
2022-11-21T09:02:39.920Z,12.13
2022-11-21T09:03:39.828Z,12.23
2022-11-21T09:04:39.864Z,12.43
2022-11-21T09:05:39.839Z,12.59
2022-11-21T09:06:39.812Z,12.70
2022-11-21T09:07:39.952Z,12.66
2022-11-21T09:08:39.788Z,12.73
2022-11-21T09:09:39.799Z,12.11
2022-11-21T09:10:39.811Z,11.60
2022-11-21T09:11:39.828Z,11.66
2022-11-21T09:12:39.757Z,11.64
2022-11-21T09:13:39.750Z,11.57
2022-11-21T09:14:39.816Z,11.59
2022-11-21T09:15:39.707Z,11.60
2022-11-21T09:16:39.684Z,11.82
2022-11-21T09:17:39.686Z,12.13
2022-11-21T09:18:39.756Z,12.48
2022-11-21T09:19:39.806Z,12.54
2022-11-21T09:20:39.782Z,12.73
2022-11-21T09:21:39.627Z,12.79
2022-11-21T09:22:39.677Z,12.63
2022-11-21T09:23:39.641Z,12.80
2022-11-21T09:24:39.640Z,12.91
2022-11-21T09:25:39.600Z,12.95
2022-11-21T09:26:39.673Z,12.88
2022-11-21T09:27:39.798Z,12.94
2022-11-21T09:28:39.625Z,13.03
2022-11-21T09:29:39.603Z,13.22
2022-11-21T09:30:39.555Z,13.22
2022-11-21T09:31:39.578Z,13.10
2022-11-21T09:32:39.510Z,13.06
2022-11-21T09:33:39.682Z,12.70
2022-11-21T09:34:39.545Z,12.61
2022-11-21T09:35:39.483Z,12.44
2022-11-21T09:36:39.491Z,12.21
2022-11-21T09:37:39.522Z,11.98
2022-11-21T09:38:39.450Z,11.69
2022-11-21T09:39:39.473Z,11.63
2022-11-21T09:40:39.434Z,11.54
2022-11-21T09:41:39.467Z,11.44
2022-11-21T09:42:39.415Z,11.31
2022-11-21T09:43:39.432Z,11.31
2022-11-21T09:44:39.607Z,11.12
2022-11-21T09:45:39.384Z,11.35
2022-11-21T09:46:39.381Z,11.36
2022-11-21T09:47:39.374Z,11.11
2022-11-21T09:48:39.338Z,11.08
2022-11-21T09:49:39.409Z,10.98
2022-11-21T09:50:39.326Z,10.98
2022-11-21T09:51:39.415Z,11.33
2022-11-21T09:52:39.292Z,11.85
2022-11-21T09:53:39.455Z,12.44
2022-11-21T09:54:39.329Z,12.67
2022-11-21T09:55:39.298Z,12.71
2022-11-21T09:56:39.274Z,12.76
2022-11-21T09:57:39.265Z,12.44
2022-11-21T09:58:39.235Z,12.54
2022-11-21T09:59:39.300Z,12.29
2022-11-21T10:00:39.304Z,12.13
2022-11-21T10:01:39.207Z,12.16
2022-11-21T10:02:39.202Z,12.18
2022-11-21T10:03:39.358Z,12.18
2022-11-21T10:04:39.442Z,12.37
2022-11-21T10:05:39.155Z,12.46
2022-11-21T10:06:39.176Z,12.31
2022-11-21T10:07:39.244Z,12.23
2022-11-21T10:08:39.136Z,12.03
2022-11-21T10:09:39.137Z,12.07
2022-11-21T10:10:39.183Z,12.00
2022-11-21T10:11:39.080Z,12.38
2022-11-21T10:12:39.187Z,12.61
2022-11-21T10:13:39.125Z,12.38
2022-11-21T10:14:39.111Z,11.67
2022-11-21T10:15:39.067Z,11.54
2022-11-21T10:16:42.021Z,11.27
2022-11-21T10:17:39.013Z,11.35
2022-11-21T10:18:39.098Z,11.45
2022-11-21T10:19:39.066Z,11.57
2022-11-21T10:20:39.004Z,11.67
2022-11-21T10:21:39.019Z,11.46
2022-11-21T10:22:39.008Z,11.41
2022-11-21T10:23:38.959Z,11.35
2022-11-21T10:24:39.056Z,11.30
2022-11-21T10:25:38.930Z,11.23
2022-11-21T10:26:38.920Z,11.28
2022-11-21T10:27:38.935Z,11.39
2022-11-21T10:28:39.003Z,11.57
2022-11-21T10:29:38.899Z,11.60
2022-11-21T10:30:38.878Z,11.64
2022-11-21T10:31:38.862Z,11.39
2022-11-21T10:32:38.896Z,11.09
2022-11-21T10:33:38.937Z,11.17
2022-11-21T10:34:38.893Z,11.31
2022-11-21T10:35:38.837Z,11.44
2022-11-21T10:36:38.860Z,11.56
2022-11-21T10:37:38.901Z,11.70
2022-11-21T10:38:38.915Z,11.87
2022-11-21T10:39:38.862Z,11.59
2022-11-21T10:40:38.821Z,11.66
2022-11-21T10:41:38.834Z,11.75
2022-11-21T10:42:38.798Z,11.66
2022-11-21T10:43:38.793Z,11.63
2022-11-21T10:44:38.748Z,11.53
2022-11-21T10:45:38.757Z,11.45
2022-11-21T10:46:38.711Z,11.38
2022-11-21T10:47:38.756Z,11.56
2022-11-21T10:48:38.701Z,11.56
2022-11-21T10:49:38.782Z,11.79
2022-11-21T10:50:38.656Z,11.77
2022-11-21T10:51:38.719Z,12.04
2022-11-21T10:52:38.682Z,12.41
2022-11-21T10:53:38.624Z,12.23
2022-11-21T10:54:38.660Z,11.98
2022-11-21T10:55:38.650Z,12.41
2022-11-21T10:56:38.660Z,12.88
2022-11-21T10:57:38.583Z,12.81
2022-11-21T10:58:38.614Z,13.06
2022-11-21T10:59:38.572Z,13.19
2022-11-21T11:00:38.643Z,13.44
2022-11-21T11:01:38.598Z,13.48
2022-11-21T11:02:38.551Z,13.44
2022-11-21T11:03:38.627Z,13.24
2022-11-21T11:04:47.281Z,13.04
2022-11-21T11:05:39.565Z,12.94
2022-11-21T11:06:38.601Z,13.09
2022-11-21T11:07:38.657Z,13.28
2022-11-21T11:08:38.467Z,13.54
2022-11-21T11:09:38.487Z,13.47
2022-11-21T11:10:38.489Z,13.68
2022-11-21T11:11:38.542Z,13.75
2022-11-21T11:12:38.422Z,13.81
2022-11-21T11:13:45.856Z,13.79
2022-11-21T11:14:39.407Z,13.91
2022-11-21T11:15:38.411Z,14.12
2022-11-21T11:16:41.609Z,14.23
2022-11-21T11:17:38.398Z,13.88
2022-11-21T11:18:38.395Z,13.72
2022-11-21T11:19:40.336Z,13.72
2022-11-21T11:20:38.419Z,13.80
2022-11-21T11:21:38.407Z,13.81
2022-11-21T11:22:38.306Z,13.91
2022-11-21T11:23:38.293Z,13.91
2022-11-21T11:24:38.358Z,13.76
2022-11-21T11:25:38.323Z,13.71
2022-11-21T11:26:38.292Z,13.87
2022-11-21T11:27:38.273Z,13.96
2022-11-21T11:28:38.324Z,14.11
2022-11-21T11:29:38.295Z,14.36
2022-11-21T11:30:38.231Z,14.54
2022-11-21T11:31:38.224Z,14.49
2022-11-21T11:32:38.253Z,14.38
2022-11-21T11:33:38.251Z,14.29
2022-11-21T11:34:38.182Z,14.34
2022-11-21T11:35:38.329Z,13.93
2022-11-21T11:36:38.189Z,13.86
2022-11-21T11:37:40.779Z,13.54
2022-11-21T11:38:38.184Z,13.24
2022-11-21T11:39:38.123Z,13.10
2022-11-21T11:40:38.165Z,13.21
2022-11-21T11:41:38.172Z,13.36
2022-11-21T11:42:38.193Z,13.35
2022-11-21T11:43:38.513Z,13.50
2022-11-21T11:44:38.101Z,13.51
2022-11-21T11:45:38.105Z,13.72
2022-11-21T11:46:38.081Z,13.68
2022-11-21T11:47:38.022Z,13.75
2022-11-21T11:48:56.586Z,13.98
2022-11-21T11:49:39.091Z,14.41
2022-11-21T11:50:38.107Z,14.63
2022-11-21T11:51:37.984Z,14.48
2022-11-21T11:52:37.993Z,14.39
2022-11-21T11:53:38.006Z,14.34
2022-11-21T11:54:37.958Z,13.93
2022-11-21T11:55:37.984Z,13.59
2022-11-21T11:56:37.942Z,13.51
2022-11-21T11:57:37.966Z,13.53
2022-11-21T11:58:37.927Z,13.63
2022-11-21T11:59:37.914Z,13.55
2022-11-21T12:00:37.906Z,13.61
2022-11-21T12:01:37.917Z,13.68
2022-11-21T12:02:37.961Z,13.65
2022-11-21T12:03:37.858Z,13.71
2022-11-21T12:04:37.871Z,13.71
2022-11-21T12:05:37.889Z,14.16
2022-11-21T12:07:31.429Z,14.41
2022-11-21T12:08:38.996Z,14.72
2022-11-21T12:08:41.976Z,14.82
2022-11-21T12:09:37.977Z,15.05
2022-11-21T12:10:37.773Z,15.09
2022-11-21T12:11:37.840Z,15.18
2022-11-21T12:12:37.780Z,15.13
2022-11-21T12:13:37.768Z,14.79
2022-11-21T12:14:37.781Z,14.75
2022-11-21T12:15:37.823Z,14.71
2022-11-21T12:16:37.742Z,14.60
2022-11-21T12:17:37.745Z,14.23
2022-11-21T12:18:37.705Z,13.71
2022-11-21T12:19:37.761Z,13.71
2022-11-21T12:20:37.777Z,13.79
2022-11-21T12:21:37.690Z,13.69
2022-11-21T12:22:37.654Z,13.53
2022-11-21T12:23:37.670Z,13.41
2022-11-21T12:24:42.775Z,13.13
2022-11-21T12:25:38.650Z,13.10
2022-11-21T12:26:37.637Z,13.03
2022-11-21T12:27:37.653Z,13.07
2022-11-21T12:28:37.583Z,12.98
2022-11-21T12:29:37.622Z,12.99
2022-11-21T12:30:37.574Z,12.99
2022-11-21T12:31:37.584Z,12.98
2022-11-21T12:32:37.604Z,13.17
2022-11-21T12:33:37.635Z,13.28
2022-11-21T12:34:37.513Z,13.47
2022-11-21T12:35:37.515Z,13.61
2022-11-21T12:36:37.546Z,13.68
2022-11-21T12:37:37.544Z,13.65
2022-11-21T12:38:40.636Z,13.72
2022-11-21T12:39:38.521Z,13.73
2022-11-21T12:40:37.488Z,13.73
2022-11-21T12:41:37.498Z,13.71
2022-11-21T12:42:37.466Z,13.38
2022-11-21T12:43:37.490Z,13.27
2022-11-21T12:44:37.408Z,13.28
2022-11-21T12:45:37.411Z,13.38
2022-11-21T12:46:37.385Z,13.47
2022-11-21T12:47:37.388Z,13.41
2022-11-21T12:48:37.422Z,13.44
2022-11-21T12:49:37.447Z,13.29
2022-11-21T12:50:37.351Z,13.12
2022-11-21T12:51:37.357Z,13.21
2022-11-21T12:52:37.347Z,13.06
2022-11-21T12:53:37.307Z,12.92
2022-11-21T12:54:37.444Z,12.74
2022-11-21T12:55:37.310Z,12.61
2022-11-21T12:56:37.287Z,12.58
2022-11-21T12:57:37.456Z,12.58
2022-11-21T12:58:37.313Z,12.46
2022-11-21T12:59:37.242Z,12.44
2022-11-21T13:00:37.277Z,12.51
2022-11-21T13:01:37.279Z,12.55
2022-11-21T13:02:37.235Z,12.52
2022-11-21T13:03:37.213Z,12.58
2022-11-21T13:04:37.192Z,12.51
2022-11-21T13:05:37.220Z,12.40
2022-11-21T13:06:37.196Z,12.36
2022-11-21T13:07:37.277Z,12.38
2022-11-21T13:08:37.177Z,12.38